Lubbock, TX (79424)

2:06 PM CDT on September 28, 2016 (GMT -0500)
Woodlank Park | | Change Station

Elev 3264 ft 33.52 °N, 101.92 °W | Updated 45 seconds ago

Partly Cloudy
Partly Cloudy
85.1 °F
Feels Like 83 °F
N
0.0
Wind Variable Wind from North

Today
High -- | Low -- °F
--% Chance of Precip.
Yesterday
High -- | Low -- °F
Precip. -- in
Pressure 30.06 in
Visibility 10.0 miles
Clouds Few 15000 ft
Few 25000 ft
Heat Index 83 °F
Dew Point 47 °F
Humidity 27%
Rainfall 0.00 in
Snow Depth Not available.
7:40 AM 7:35 PM
Waning Crescent, 5% visible
METAR KLBB 281853Z 03006KT 10SM FEW150 FEW250 30/05 A3019 RMK AO2 SLP180 T03000050
Pressure 30.06 in
Visibility 10.0 miles
Clouds Few 15000 ft
Few 25000 ft
Heat Index 83 °F
Dew Point 47 °F
Humidity 27%
Rainfall 0.00 in
Snow Depth Not available.
7:40 AM 7:35 PM
Waning Crescent, 5% visible
METAR KLBB 281853Z 03006KT 10SM FEW150 FEW250 30/05 A3019 RMK AO2 SLP180 T03000050

10-Day Weather Forecast

Almanac

Astronomy

Sep. 28, 2016 Rise Set
Actual Time
Civil Twilight
Nautical Twilight
Astronomical Twilight
Moon
Length of Visible Light
Length of Day
Tomorrow will be .
, % of the Moon is Illuminated

Today's Extremes

State Highs State Lows

Community

WunderPhotos

Upload Photos

1,942,303 photos uploaded!

WunderBlog® & News

Nearby

Air Quality

  Air Quality AQ Index Pollutant
Not available.

Snow Depth

Station Depth Elevation

Earthquake Activity

City Distance Mag. Time & Date
Minimum magnitude displayed is 2.5.

Coastal Water Temperatures

Place Temperature

Stations

Nearby Weather Stations

Station Location Temp. Windchill Dew Point Humidity Wind Precip. Elev Updated Type
                   

Watches & Warnings

There are currently no watches in effect.